createdAt,value
2017-04-06T00:00:23.265Z,8.63
2017-04-06T00:01:23.258Z,8.5
2017-04-06T00:02:23.245Z,8.55
2017-04-06T00:03:23.244Z,8.52
2017-04-06T00:04:23.227Z,8.52
2017-04-06T00:05:23.220Z,8.59
2017-04-06T00:06:23.211Z,8.53
2017-04-06T00:07:23.201Z,8.61
2017-04-06T00:08:23.190Z,8.52
2017-04-06T00:09:22.877Z,8.55
2017-04-06T00:10:23.517Z,8.52
2017-04-06T00:11:23.162Z,8.44
2017-04-06T00:12:23.153Z,8.47
2017-04-06T00:13:23.143Z,8.43
2017-04-06T00:14:23.134Z,8.43
2017-04-06T00:15:23.124Z,8.36
2017-04-06T00:16:23.118Z,8.4
2017-04-06T00:17:23.108Z,8.4
2017-04-06T00:18:23.095Z,8.38
2017-04-06T00:19:23.084Z,8.44
2017-04-06T00:20:23.076Z,8.52
2017-04-06T00:21:23.068Z,8.44
2017-04-06T00:22:23.057Z,8.5
2017-04-06T00:23:23.046Z,8.44
2017-04-06T00:24:23.037Z,8.37
2017-04-06T00:25:23.026Z,8.34
2017-04-06T00:26:23.020Z,8.36
2017-04-06T00:27:23.009Z,8.29
2017-04-06T00:28:23.001Z,8.29
2017-04-06T00:29:22.990Z,8.3
2017-04-06T00:30:22.983Z,8.28
2017-04-06T00:31:22.974Z,8.25
2017-04-06T00:32:22.963Z,8.15
2017-04-06T00:33:22.959Z,8.23
2017-04-06T00:34:22.946Z,8.01
2017-04-06T00:35:22.933Z,8.07
2017-04-06T00:36:22.927Z,8.2
2017-04-06T00:37:22.915Z,8.12
2017-04-06T00:38:22.902Z,8
2017-04-06T00:39:22.896Z,8.04
2017-04-06T00:40:22.887Z,8.02
2017-04-06T00:41:22.877Z,8.04
2017-04-06T00:42:22.866Z,8.04
2017-04-06T00:43:22.854Z,8.01
2017-04-06T00:44:22.544Z,8.04
2017-04-06T00:45:22.836Z,7.98
2017-04-06T00:46:22.830Z,8
2017-04-06T00:47:22.815Z,8.04
2017-04-06T00:48:22.811Z,8.02
2017-04-06T00:49:22.798Z,8
2017-04-06T00:50:22.485Z,7.93
2017-04-06T00:51:22.781Z,7.98
2017-04-06T00:52:22.766Z,8.05
2017-04-06T00:53:22.756Z,8.02
2017-04-06T00:54:22.750Z,8.01
2017-04-06T00:55:22.746Z,8.04
2017-04-06T00:56:22.730Z,8.05
2017-04-06T00:57:22.718Z,8.01
2017-04-06T00:58:22.707Z,8.02
2017-04-06T00:59:22.698Z,8.04
2017-04-06T01:00:22.692Z,8.05
2017-04-06T01:01:22.680Z,8.02
2017-04-06T01:02:22.369Z,7.97
2017-04-06T01:03:22.658Z,7.98
2017-04-06T01:04:22.648Z,7.95
2017-04-06T01:05:22.638Z,8.08
2017-04-06T01:06:22.634Z,8.04
2017-04-06T01:07:22.620Z,7.97
2017-04-06T01:08:22.609Z,8.05
2017-04-06T01:09:22.600Z,7.97
2017-04-06T01:10:22.591Z,7.93
2017-04-06T01:11:22.580Z,7.93
2017-04-06T01:12:22.572Z,7.89
2017-04-06T01:13:22.559Z,7.93
2017-04-06T01:14:22.805Z,7.9
2017-04-06T01:15:22.540Z,7.87
2017-04-06T01:16:22.531Z,7.87
2017-04-06T01:17:22.524Z,7.77
2017-04-06T01:18:22.510Z,7.77
2017-04-06T01:19:22.751Z,7.79
2017-04-06T01:20:22.493Z,7.82
2017-04-06T01:21:22.482Z,7.82
2017-04-06T01:22:22.472Z,7.79
2017-04-06T01:23:22.461Z,7.8
2017-04-06T01:24:22.406Z,7.79
2017-04-06T01:25:22.442Z,7.75
2017-04-06T01:26:22.433Z,7.83
2017-04-06T01:27:22.422Z,7.79
2017-04-06T01:28:22.414Z,7.8
2017-04-06T01:29:22.702Z,7.82
2017-04-06T01:30:22.090Z,7.79
2017-04-06T01:31:22.382Z,7.8
2017-04-06T01:32:22.373Z,7.75
2017-04-06T01:33:22.362Z,7.82
2017-04-06T01:34:22.602Z,7.85
2017-04-06T01:35:22.353Z,7.82
2017-04-06T01:36:22.334Z,7.8
2017-04-06T01:37:22.320Z,7.79
2017-04-06T01:38:22.316Z,7.87
2017-04-06T01:39:22.651Z,7.89
2017-04-06T01:40:22.294Z,7.86
2017-04-06T01:41:22.284Z,7.97
2017-04-06T01:42:22.276Z,7.89
2017-04-06T01:43:22.267Z,7.89
2017-04-06T01:44:22.552Z,7.9
2017-04-06T01:45:22.243Z,7.79
2017-04-06T01:46:22.233Z,7.92
2017-04-06T01:47:22.225Z,7.9
2017-04-06T01:48:22.211Z,7.83
2017-04-06T01:49:22.452Z,7.92
2017-04-06T01:50:22.194Z,7.89
2017-04-06T01:51:22.182Z,7.92
2017-04-06T01:52:22.172Z,8
2017-04-06T01:53:22.166Z,7.9
2017-04-06T01:54:22.458Z,7.98
2017-04-06T01:55:22.141Z,7.97
2017-04-06T01:56:22.135Z,7.98
2017-04-06T01:57:22.128Z,8.02
2017-04-06T01:58:22.112Z,7.95
2017-04-06T01:59:22.049Z,8
2017-04-06T02:00:22.094Z,7.89
2017-04-06T02:01:22.085Z,8
2017-04-06T02:02:22.073Z,8
2017-04-06T02:03:22.062Z,7.86
2017-04-06T02:04:22.304Z,7.87
2017-04-06T02:05:22.045Z,7.89
2017-04-06T02:06:22.033Z,7.89
2017-04-06T02:07:22.025Z,7.86
2017-04-06T02:08:22.020Z,7.93
2017-04-06T02:09:22.255Z,7.87
2017-04-06T02:10:21.994Z,7.85
2017-04-06T02:11:21.985Z,7.89
2017-04-06T02:12:21.975Z,7.86
2017-04-06T02:13:21.964Z,7.87
2017-04-06T02:14:22.306Z,7.87
2017-04-06T02:15:21.946Z,7.87
2017-04-06T02:16:21.938Z,7.97
2017-04-06T02:17:21.925Z,7.9
2017-04-06T02:18:21.916Z,7.89
2017-04-06T02:19:22.155Z,7.9
2017-04-06T02:20:21.898Z,7.86
2017-04-06T02:21:21.885Z,7.75
2017-04-06T02:22:21.880Z,7.85
2017-04-06T02:23:21.865Z,7.83
2017-04-06T02:24:22.107Z,7.8
2017-04-06T02:25:21.845Z,7.79
2017-04-06T02:26:21.839Z,7.74
2017-04-06T02:27:21.826Z,7.69
2017-04-06T02:28:21.818Z,7.71
2017-04-06T02:29:22.107Z,7.71
2017-04-06T02:30:21.803Z,7.68
2017-04-06T02:31:21.787Z,7.71
2017-04-06T02:32:21.776Z,7.8
2017-04-06T02:33:21.766Z,7.69
2017-04-06T02:34:22.012Z,7.68
2017-04-06T02:35:21.749Z,7.67
2017-04-06T02:36:21.434Z,7.57
2017-04-06T02:37:21.727Z,7.58
2017-04-06T02:38:21.715Z,7.6
2017-04-06T02:39:21.956Z,7.57
2017-04-06T02:40:21.695Z,7.46
2017-04-06T02:41:21.687Z,7.37
2017-04-06T02:42:21.678Z,7.28
2017-04-06T02:43:21.666Z,7.28
2017-04-06T02:44:21.906Z,7.27
2017-04-06T02:45:21.647Z,7.17
2017-04-06T02:46:21.634Z,7.05
2017-04-06T02:47:21.627Z,7.02
2017-04-06T02:48:21.619Z,6.89
2017-04-06T02:49:21.854Z,6.88
2017-04-06T02:50:21.291Z,6.84
2017-04-06T02:51:21.585Z,6.66
2017-04-06T02:52:21.577Z,6.69
2017-04-06T02:53:21.563Z,6.62
2017-04-06T02:54:21.853Z,6.49
2017-04-06T02:55:21.239Z,6.48
2017-04-06T02:56:21.531Z,6.46
2017-04-06T02:57:21.521Z,6.34
2017-04-06T02:58:21.512Z,6.36
2017-04-06T02:59:21.851Z,6.25
2017-04-06T03:00:21.494Z,6.17
2017-04-06T03:01:21.481Z,6.14
2017-04-06T03:02:21.468Z,6.08
2017-04-06T03:03:21.457Z,6.03
2017-04-06T03:04:21.697Z,6.03
2017-04-06T03:05:21.436Z,5.97
2017-04-06T03:06:21.425Z,5.93
2017-04-06T03:07:21.419Z,5.9
2017-04-06T03:08:21.403Z,5.96
2017-04-06T03:09:21.665Z,5.85
2017-04-06T03:10:21.384Z,5.83
2017-04-06T03:11:21.372Z,5.81
2017-04-06T03:12:21.360Z,5.75
2017-04-06T03:13:21.349Z,5.67
2017-04-06T03:14:21.589Z,5.67
2017-04-06T03:15:21.025Z,5.6
2017-04-06T03:16:21.314Z,5.54
2017-04-06T03:17:21.307Z,5.57
2017-04-06T03:18:21.294Z,5.54
2017-04-06T03:19:21.581Z,5.45
2017-04-06T03:20:21.272Z,5.46
2017-04-06T03:21:21.265Z,5.53
2017-04-06T03:22:21.251Z,5.43
2017-04-06T03:23:21.237Z,5.45
2017-04-06T03:24:21.476Z,5.36
2017-04-06T03:25:21.215Z,5.39
2017-04-06T03:26:21.207Z,5.39
2017-04-06T03:27:21.193Z,5.31
2017-04-06T03:28:21.180Z,5.3
2017-04-06T03:29:21.471Z,5.2
2017-04-06T03:30:21.157Z,5.24
2017-04-06T03:31:21.146Z,5.24
2017-04-06T03:32:21.136Z,5.21
2017-04-06T03:33:21.126Z,5.28
2017-04-06T03:34:21.111Z,5.21
2017-04-06T03:35:21.103Z,5.21
2017-04-06T03:36:21.088Z,5.21
2017-04-06T03:37:21.079Z,5.12
2017-04-06T03:38:21.067Z,5.1
2017-04-06T03:39:21.054Z,5.07
2017-04-06T03:40:21.044Z,5.06
2017-04-06T03:41:21.061Z,5.07
2017-04-06T03:42:21.021Z,4.99
2017-04-06T03:43:21.009Z,5.02
2017-04-06T03:44:20.996Z,5
2017-04-06T03:45:20.986Z,4.97
2017-04-06T03:46:20.974Z,4.96
2017-04-06T03:47:20.967Z,4.94
2017-04-06T03:48:20.951Z,4.92
2017-04-06T03:49:20.939Z,4.86
2017-04-06T03:50:20.927Z,4.92
2017-04-06T03:51:20.617Z,4.86
2017-04-06T03:52:20.905Z,4.85
2017-04-06T03:53:20.891Z,4.89
2017-04-06T03:54:20.884Z,4.8
2017-04-06T03:55:20.870Z,4.77
2017-04-06T03:56:20.855Z,4.88
2017-04-06T03:57:20.844Z,4.82
2017-04-06T03:58:20.835Z,4.85
2017-04-06T03:59:20.825Z,4.84
2017-04-06T04:00:20.509Z,4.78
2017-04-06T04:01:20.797Z,4.78
2017-04-06T04:02:20.784Z,4.82
2017-04-06T04:03:20.775Z,4.78
2017-04-06T04:04:20.761Z,4.77
2017-04-06T04:05:20.749Z,4.78
2017-04-06T04:06:20.741Z,4.8
2017-04-06T04:07:20.730Z,4.8
2017-04-06T04:08:20.718Z,4.73
2017-04-06T04:09:20.704Z,4.89
2017-04-06T04:10:20.691Z,4.92
2017-04-06T04:11:20.680Z,4.89
2017-04-06T04:12:20.674Z,4.96
2017-04-06T04:13:20.656Z,4.97
2017-04-06T04:14:20.670Z,5.03
2017-04-06T04:15:20.630Z,5.12
2017-04-06T04:16:20.622Z,5.1
2017-04-06T04:17:20.608Z,5.3
2017-04-06T04:18:20.594Z,5.36
2017-04-06T04:19:20.282Z,5.42
2017-04-06T04:20:20.572Z,5.53
2017-04-06T04:21:20.562Z,5.6
2017-04-06T04:22:20.556Z,5.58
2017-04-06T04:23:20.539Z,5.68
2017-04-06T04:24:20.525Z,5.76
2017-04-06T04:25:20.766Z,5.75
2017-04-06T04:26:20.504Z,5.89
2017-04-06T04:27:20.490Z,5.89
2017-04-06T04:28:20.479Z,5.97
2017-04-06T04:29:20.467Z,5.93
2017-04-06T04:30:20.707Z,6.09
2017-04-06T04:31:20.450Z,6.01
2017-04-06T04:32:20.129Z,6.08
2017-04-06T04:33:20.422Z,6.27
2017-04-06T04:34:20.414Z,6.25
2017-04-06T04:35:20.651Z,6.27
2017-04-06T04:36:20.395Z,6.3
2017-04-06T04:37:20.377Z,6.36
2017-04-06T04:38:20.366Z,6.41
2017-04-06T04:39:20.356Z,6.36
2017-04-06T04:40:20.596Z,6.38
2017-04-06T04:41:20.332Z,6.37
2017-04-06T04:42:20.324Z,6.4
2017-04-06T04:43:20.309Z,6.36
2017-04-06T04:44:20.297Z,6.3
2017-04-06T04:45:20.588Z,6.25
2017-04-06T04:46:19.972Z,6.22
2017-04-06T04:47:20.266Z,6.22
2017-04-06T04:48:20.257Z,6.22
2017-04-06T04:49:20.244Z,6.15
2017-04-06T04:50:20.179Z,6.09
2017-04-06T04:51:20.223Z,6.14
2017-04-06T04:52:20.215Z,6.09
2017-04-06T04:53:20.199Z,6.14
2017-04-06T04:54:20.188Z,6.03
2017-04-06T04:55:20.126Z,6.08
2017-04-06T04:56:20.165Z,6.11
2017-04-06T04:57:20.154Z,6.18
2017-04-06T04:58:20.148Z,6.27
2017-04-06T04:59:20.131Z,6.3
2017-04-06T05:00:20.379Z,6.36
2017-04-06T05:01:20.128Z,6.44
2017-04-06T05:02:20.105Z,6.52
2017-04-06T05:03:20.092Z,6.55
2017-04-06T05:04:20.080Z,6.59
2017-04-06T05:05:20.318Z,6.62
2017-04-06T05:06:20.057Z,6.85
2017-04-06T05:07:20.049Z,6.81
2017-04-06T05:08:20.035Z,6.84
2017-04-06T05:09:20.025Z,6.85
2017-04-06T05:10:20.316Z,6.92
2017-04-06T05:11:20.047Z,7.06
2017-04-06T05:12:19.991Z,7.1
2017-04-06T05:13:19.677Z,7.15
2017-04-06T05:14:19.693Z,7.31
2017-04-06T05:15:20.312Z,7.3
2017-04-06T05:16:19.665Z,7.4
2017-04-06T05:17:19.944Z,7.39
2017-04-06T05:18:19.931Z,7.49
2017-04-06T05:19:19.919Z,7.6
2017-04-06T05:20:20.259Z,7.6
2017-04-06T05:21:19.901Z,7.6
2017-04-06T05:22:19.890Z,7.57
2017-04-06T05:23:19.876Z,7.57
2017-04-06T05:24:19.564Z,7.52
2017-04-06T05:25:20.110Z,7.57
2017-04-06T05:26:19.850Z,7.6
2017-04-06T05:27:19.534Z,7.58
2017-04-06T05:28:19.827Z,7.58
2017-04-06T05:29:19.815Z,7.6
2017-04-06T05:30:20.060Z,7.61
2017-04-06T05:31:19.498Z,7.64
2017-04-06T05:32:19.787Z,7.72
2017-04-06T05:33:19.776Z,7.74
2017-04-06T05:34:19.772Z,7.85
2017-04-06T05:35:20.007Z,7.86
2017-04-06T05:36:19.140Z,7.97
2017-04-06T05:37:19.435Z,7.98
2017-04-06T05:38:19.725Z,8.05
2017-04-06T05:39:19.717Z,8.1
2017-04-06T05:40:19.957Z,8.25
2017-04-06T05:41:19.397Z,8.28
2017-04-06T05:42:19.687Z,8.28
2017-04-06T05:43:19.703Z,8.37
2017-04-06T05:44:19.670Z,8.4
2017-04-06T05:45:19.655Z,8.38
2017-04-06T05:46:19.348Z,8.41
2017-04-06T05:47:19.644Z,8.4
2017-04-06T05:48:19.661Z,8.45
2017-04-06T05:49:19.621Z,8.53
2017-04-06T05:50:19.586Z,8.58
2017-04-06T05:51:19.604Z,8.81
2017-04-06T05:52:19.596Z,8.96
2017-04-06T05:53:19.586Z,9.2
2017-04-06T05:54:19.577Z,9.42
2017-04-06T05:55:19.819Z,9.51
2017-04-06T05:56:19.561Z,9.47
2017-04-06T05:57:19.557Z,9.46
2017-04-06T05:58:19.243Z,9.4
2017-04-06T05:59:19.534Z,9.5
2017-04-06T06:00:19.879Z,9.65
2017-04-06T06:01:19.522Z,9.68
2017-04-06T06:02:19.514Z,9.91
2017-04-06T06:03:19.504Z,10.09
2017-04-06T06:04:19.496Z,10.25
2017-04-06T06:05:19.802Z,10.29
2017-04-06T06:06:19.482Z,10.56
2017-04-06T06:07:19.483Z,10.61
2017-04-06T06:08:19.468Z,10.55
2017-04-06T06:09:19.462Z,10.56
2017-04-06T06:10:19.705Z,10.42
2017-04-06T06:11:19.460Z,10.41
2017-04-06T06:12:19.441Z,10.38
2017-04-06T06:13:19.141Z,10.51
2017-04-06T06:14:19.428Z,10.53
2017-04-06T06:15:19.673Z,10.63
2017-04-06T06:16:19.118Z,10.63
2017-04-06T06:17:19.106Z,10.66
2017-04-06T06:18:19.404Z,10.76
2017-04-06T06:19:19.401Z,10.89
2017-04-06T06:20:19.641Z,10.96
2017-04-06T06:21:19.386Z,11.02
2017-04-06T06:22:19.077Z,11.07
2017-04-06T06:23:19.373Z,11.27
2017-04-06T06:24:19.367Z,11.35
2017-04-06T06:25:19.616Z,11.28
2017-04-06T06:26:19.356Z,11.29
2017-04-06T06:27:19.352Z,11.32
2017-04-06T06:28:19.344Z,11.37
2017-04-06T06:29:19.341Z,11.43
2017-04-06T06:30:19.633Z,11.67
2017-04-06T06:31:19.332Z,11.82
2017-04-06T06:32:19.022Z,11.86
2017-04-06T06:33:19.320Z,11.82
2017-04-06T06:34:19.314Z,12.07
2017-04-06T06:35:19.617Z,12.14
2017-04-06T06:36:19.310Z,12.41
2017-04-06T06:37:19.331Z,12.46
2017-04-06T06:38:19.297Z,12.56
2017-04-06T06:39:18.992Z,12.7
2017-04-06T06:40:19.539Z,12.85
2017-04-06T06:41:19.289Z,13.2
2017-04-06T06:42:19.289Z,13.44
2017-04-06T06:43:19.277Z,13.66
2017-04-06T06:44:19.275Z,13.79
2017-04-06T06:45:19.571Z,13.77
2017-04-06T06:46:18.968Z,13.55
2017-04-06T06:47:19.266Z,13.52
2017-04-06T06:48:19.268Z,13.64
2017-04-06T06:49:19.263Z,13.73
2017-04-06T06:50:19.514Z,13.88
2017-04-06T06:51:19.259Z,13.89
2017-04-06T06:52:19.258Z,14.02
2017-04-06T06:53:19.253Z,14.02
2017-04-06T06:54:19.254Z,14.07
2017-04-06T06:55:19.500Z,14.18
2017-04-06T06:56:19.248Z,14.32
2017-04-06T06:57:19.247Z,14.55
2017-04-06T06:58:19.245Z,14.58
2017-04-06T06:59:19.246Z,14.81
2017-04-06T07:00:18.941Z,14.89
2017-04-06T07:01:19.249Z,15.11
2017-04-06T07:02:19.242Z,15.2
2017-04-06T07:03:19.243Z,15.28
2017-04-06T07:04:19.242Z,15.35
2017-04-06T07:05:19.246Z,15.43
2017-04-06T07:06:19.249Z,15.46
2017-04-06T07:07:19.251Z,15.43
2017-04-06T07:08:19.246Z,15.65
2017-04-06T07:09:19.246Z,15.64
2017-04-06T07:10:18.939Z,15.8
2017-04-06T07:11:19.246Z,16.02
2017-04-06T07:12:19.245Z,16.08
2017-04-06T07:13:19.246Z,16.04
2017-04-06T07:14:19.245Z,15.96
2017-04-06T07:15:19.247Z,16.01
2017-04-06T07:16:19.248Z,16.2
2017-04-06T07:17:19.246Z,16.46
2017-04-06T07:18:19.250Z,16.64
2017-04-06T07:19:19.247Z,16.78
2017-04-06T07:20:19.250Z,16.81
2017-04-06T07:21:19.249Z,16.81
2017-04-06T07:22:19.251Z,16.81
2017-04-06T07:23:19.281Z,16.85
2017-04-06T07:24:19.253Z,16.91
2017-04-06T07:25:19.254Z,17.03
2017-04-06T07:26:19.255Z,17.07
2017-04-06T07:27:19.256Z,17.01
2017-04-06T07:28:19.258Z,17
2017-04-06T07:29:19.258Z,17.01
2017-04-06T07:30:19.263Z,17
2017-04-06T07:31:19.263Z,16.97
2017-04-06T07:32:19.262Z,16.94
2017-04-06T07:33:19.266Z,16.96
2017-04-06T07:34:19.267Z,16.94
2017-04-06T07:35:19.271Z,16.97
2017-04-06T07:36:19.269Z,16.89
2017-04-06T07:37:19.271Z,16.96
2017-04-06T07:38:19.271Z,17.01
2017-04-06T07:39:19.279Z,16.94
2017-04-06T07:40:19.275Z,17.03
2017-04-06T07:41:19.280Z,16.96
2017-04-06T07:42:19.283Z,16.75
2017-04-06T07:43:19.284Z,16.68
2017-04-06T07:44:19.286Z,16.57
2017-04-06T07:45:19.288Z,16.27
2017-04-06T07:46:19.287Z,16.05
2017-04-06T07:47:19.291Z,15.96
2017-04-06T07:48:19.291Z,15.67
2017-04-06T07:49:19.296Z,15.54
2017-04-06T07:50:19.297Z,15.53
2017-04-06T07:51:19.297Z,15.54
2017-04-06T07:52:19.300Z,15.5
2017-04-06T07:53:18.996Z,15.53
2017-04-06T07:54:19.303Z,15.64
2017-04-06T07:55:19.304Z,15.59
2017-04-06T07:56:19.303Z,15.51
2017-04-06T07:57:19.003Z,15.54
2017-04-06T07:58:19.306Z,15.49
2017-04-06T07:59:19.307Z,15.6
2017-04-06T08:00:19.316Z,15.56
2017-04-06T08:01:19.309Z,15.53
2017-04-06T08:02:18.706Z,15.53
2017-04-06T08:03:19.314Z,15.72
2017-04-06T08:04:19.321Z,15.82
2017-04-06T08:05:19.319Z,15.87
2017-04-06T08:06:19.332Z,15.74
2017-04-06T08:07:19.329Z,15.74
2017-04-06T08:08:19.024Z,15.67
2017-04-06T08:09:19.023Z,15.56
2017-04-06T08:10:19.027Z,15.46
2017-04-06T08:11:19.331Z,15.41
2017-04-06T08:12:19.334Z,15.36
2017-04-06T08:13:19.334Z,15.35
2017-04-06T08:14:19.035Z,15.43
2017-04-06T08:15:19.041Z,15.41
2017-04-06T08:16:19.037Z,15.32
2017-04-06T08:17:19.345Z,15.38
2017-04-06T08:18:19.349Z,15.34
2017-04-06T08:19:19.348Z,15.27
2017-04-06T08:20:19.353Z,15.41
2017-04-06T08:21:19.359Z,15.36
2017-04-06T08:22:19.362Z,15.35
2017-04-06T08:23:19.356Z,15.34
2017-04-06T08:24:19.359Z,15.43
2017-04-06T08:25:19.362Z,15.32
2017-04-06T08:26:19.361Z,15.17
2017-04-06T08:27:19.362Z,14.96
2017-04-06T08:28:19.389Z,14.83
2017-04-06T08:29:19.361Z,14.68
2017-04-06T08:30:19.364Z,14.57
2017-04-06T08:31:19.363Z,14.52
2017-04-06T08:32:19.056Z,14.46
2017-04-06T08:33:19.362Z,14.47
2017-04-06T08:34:19.355Z,14.35
2017-04-06T08:35:19.355Z,14.29
2017-04-06T08:36:19.354Z,14.25
2017-04-06T08:37:19.353Z,14.04
2017-04-06T08:38:19.347Z,13.88
2017-04-06T08:39:19.344Z,13.91
2017-04-06T08:40:19.344Z,13.88
2017-04-06T08:41:19.338Z,13.73
2017-04-06T08:42:19.336Z,13.81
2017-04-06T08:43:19.330Z,13.78
2017-04-06T08:44:19.328Z,13.7
2017-04-06T08:45:19.324Z,13.54
2017-04-06T08:46:19.321Z,13.36
2017-04-06T08:47:19.018Z,13.25
2017-04-06T08:48:19.310Z,13.19
2017-04-06T08:49:19.310Z,13.19
2017-04-06T08:51:19.304Z,13.17
2017-04-06T08:52:19.293Z,13.11
2017-04-06T08:53:19.291Z,13.12
2017-04-06T08:54:19.285Z,13.04
2017-04-06T08:55:19.280Z,13.03
2017-04-06T08:56:19.525Z,13.01
2017-04-06T08:57:18.968Z,12.92
2017-04-06T08:58:19.269Z,13.03
2017-04-06T08:59:19.260Z,13.01
2017-04-06T09:00:19.256Z,13.01
2017-04-06T09:01:19.552Z,13.03
2017-04-06T09:02:19.243Z,12.83
2017-04-06T09:03:19.239Z,12.83
2017-04-06T09:04:19.233Z,12.92
2017-04-06T09:05:19.230Z,12.86
2017-04-06T09:06:19.169Z,12.75
2017-04-06T09:07:19.221Z,12.72
2017-04-06T09:08:18.908Z,12.68
2017-04-06T09:09:19.205Z,12.46
2017-04-06T09:10:19.202Z,12.49
2017-04-06T09:11:19.444Z,12.34
2017-04-06T09:12:19.194Z,12.39
2017-04-06T09:13:19.185Z,12.45
2017-04-06T09:14:19.177Z,12.46
2017-04-06T09:15:19.175Z,12.41
2017-04-06T09:16:19.474Z,12.52
2017-04-06T09:17:19.159Z,12.56
2017-04-06T09:18:19.156Z,12.6
2017-04-06T09:19:19.149Z,12.67
2017-04-06T09:20:19.146Z,12.75
2017-04-06T09:21:19.389Z,12.87
2017-04-06T09:22:19.143Z,13.04
2017-04-06T09:23:18.823Z,13.04
2017-04-06T09:24:19.120Z,13.07
2017-04-06T09:25:19.113Z,13
2017-04-06T09:26:19.409Z,13.01
2017-04-06T09:27:19.105Z,12.85
2017-04-06T09:28:19.098Z,12.82
2017-04-06T09:29:19.094Z,12.85
2017-04-06T09:30:19.088Z,12.86
2017-04-06T09:31:19.335Z,13.03
2017-04-06T09:32:19.079Z,13.01
2017-04-06T09:33:19.073Z,13.17
2017-04-06T09:34:19.069Z,13.25
2017-04-06T09:35:19.058Z,13.22
2017-04-06T09:36:19.404Z,13.19
2017-04-06T09:37:19.050Z,13.19
2017-04-06T09:38:19.041Z,13.15
2017-04-06T09:39:19.037Z,13.04
2017-04-06T09:40:18.733Z,12.97
2017-04-06T09:41:19.278Z,13.05
2017-04-06T09:42:19.022Z,13.12
2017-04-06T09:43:19.016Z,13.12
2017-04-06T09:44:19.012Z,13.19
2017-04-06T09:45:19.005Z,13.14
2017-04-06T09:46:18.945Z,13.15
2017-04-06T09:47:19.001Z,13.25
2017-04-06T09:48:18.688Z,13.26
2017-04-06T09:49:18.981Z,13.3
2017-04-06T09:50:19.008Z,13.41
2017-04-06T09:51:18.919Z,13.41
2017-04-06T09:52:18.967Z,13.42
2017-04-06T09:53:18.964Z,13.52
2017-04-06T09:54:18.955Z,13.59
2017-04-06T09:55:18.951Z,13.64
2017-04-06T09:56:19.196Z,13.62
2017-04-06T09:57:18.640Z,13.67
2017-04-06T09:58:18.936Z,13.73
2017-04-06T09:59:18.627Z,13.85
2017-04-06T10:00:18.926Z,13.89
2017-04-06T10:01:19.270Z,13.89
2017-04-06T10:02:18.626Z,13.96
2017-04-06T10:03:18.911Z,14
2017-04-06T10:04:18.601Z,14
2017-04-06T10:05:18.899Z,14.12
2017-04-06T10:06:19.154Z,14.07
2017-04-06T10:07:18.892Z,14.21
2017-04-06T10:08:18.883Z,14.09
2017-04-06T10:09:18.877Z,14.12
2017-04-06T10:10:18.873Z,14.09
2017-04-06T10:11:19.119Z,14
2017-04-06T10:12:18.865Z,13.96
2017-04-06T10:13:18.858Z,14
2017-04-06T10:14:18.857Z,14.02
2017-04-06T10:15:18.853Z,14
2017-04-06T10:16:19.199Z,14.15
2017-04-06T10:17:18.840Z,14.09
2017-04-06T10:18:18.836Z,14.14
2017-04-06T10:19:18.828Z,14.06
2017-04-06T10:20:18.825Z,14.09
2017-04-06T10:21:19.121Z,14.06
2017-04-06T10:22:18.815Z,13.99
2017-04-06T10:23:18.846Z,14.14
2017-04-06T10:24:18.810Z,14.18
2017-04-06T10:25:18.803Z,14.25
2017-04-06T10:26:19.145Z,14.21
2017-04-06T10:27:18.792Z,14.27
2017-04-06T10:28:18.786Z,14.35
2017-04-06T10:29:18.788Z,14.36
2017-04-06T10:30:18.775Z,14.37
2017-04-06T10:31:19.026Z,14.37
2017-04-06T10:32:18.771Z,14.43
2017-04-06T10:33:18.767Z,14.65
2017-04-06T10:34:18.759Z,14.57
2017-04-06T10:35:18.754Z,14.68
2017-04-06T10:36:19.050Z,14.52
2017-04-06T10:37:18.750Z,14.57
2017-04-06T10:38:18.739Z,14.62
2017-04-06T10:39:18.734Z,14.55
2017-04-06T10:40:18.429Z,14.61
2017-04-06T10:41:18.975Z,14.6
2017-04-06T10:42:18.722Z,14.55
2017-04-06T10:43:18.717Z,14.57
2017-04-06T10:44:18.440Z,14.72
2017-04-06T10:45:18.711Z,14.81
2017-04-06T10:46:19.059Z,14.86
2017-04-06T10:47:18.701Z,14.99
2017-04-06T10:48:18.696Z,15.17
2017-04-06T10:49:18.395Z,15.25
2017-04-06T10:50:18.383Z,15.28
2017-04-06T10:51:18.940Z,15.31
2017-04-06T10:52:18.676Z,15.36
2017-04-06T10:53:18.370Z,15.14
2017-04-06T10:54:18.670Z,14.94
2017-04-06T10:55:18.667Z,14.84
2017-04-06T10:56:18.912Z,14.75
2017-04-06T10:57:18.660Z,14.64
2017-04-06T10:58:18.652Z,14.7
2017-04-06T10:59:18.649Z,14.65
2017-04-06T11:00:18.644Z,14.61
2017-04-06T11:01:18.943Z,14.68
2017-04-06T11:02:18.635Z,14.62
2017-04-06T11:03:18.328Z,14.58
2017-04-06T11:04:18.625Z,14.65
2017-04-06T11:05:18.623Z,14.55
2017-04-06T11:06:18.869Z,14.46
2017-04-06T11:07:18.614Z,14.46
2017-04-06T11:08:18.607Z,14.37
2017-04-06T11:09:18.610Z,14.39
2017-04-06T11:10:18.601Z,14.43
2017-04-06T11:11:18.894Z,14.4
2017-04-06T11:12:18.602Z,14.36
2017-04-06T11:13:18.585Z,14.55
2017-04-06T11:14:18.580Z,14.58
2017-04-06T11:15:18.577Z,14.68
2017-04-06T11:16:18.821Z,14.62
2017-04-06T11:17:18.569Z,14.78
2017-04-06T11:18:18.566Z,14.81
2017-04-06T11:19:18.556Z,14.83
2017-04-06T11:20:18.553Z,14.94
2017-04-06T11:21:18.799Z,15.01
2017-04-06T11:22:18.544Z,15.06
2017-04-06T11:23:18.543Z,15.17
2017-04-06T11:24:18.535Z,15.13
2017-04-06T11:25:18.529Z,15.13
2017-04-06T11:26:18.776Z,15.06
2017-04-06T11:27:18.527Z,14.98
2017-04-06T11:28:18.518Z,14.98
2017-04-06T11:29:18.510Z,14.84
2017-04-06T11:30:18.509Z,14.78
2017-04-06T11:31:18.755Z,14.8
2017-04-06T11:32:18.504Z,14.89
2017-04-06T11:33:18.496Z,14.84
2017-04-06T11:34:18.496Z,14.81
2017-04-06T11:35:18.486Z,14.88
2017-04-06T11:36:18.838Z,14.86
2017-04-06T11:37:18.481Z,14.94
2017-04-06T11:38:18.473Z,14.98
2017-04-06T11:39:18.472Z,15.06
2017-04-06T11:40:18.465Z,15.23
2017-04-06T11:41:18.708Z,15.25
2017-04-06T11:42:18.455Z,15.23
2017-04-06T11:43:18.453Z,15.21
2017-04-06T11:44:18.447Z,15.27
2017-04-06T11:45:18.444Z,15.25
2017-04-06T11:46:18.689Z,15.23
2017-04-06T11:47:18.636Z,15.27
2017-04-06T11:48:18.429Z,15.31
2017-04-06T11:49:18.424Z,15.5
2017-04-06T11:50:17.819Z,15.41
2017-04-06T11:51:18.669Z,15.51
2017-04-06T11:52:18.415Z,15.51
2017-04-06T11:53:18.106Z,15.51
2017-04-06T11:54:18.404Z,15.43
2017-04-06T11:55:18.401Z,15.5
2017-04-06T11:56:18.646Z,15.65
2017-04-06T11:57:18.392Z,15.72
2017-04-06T11:58:18.385Z,15.84
2017-04-06T11:59:18.384Z,15.89
2017-04-06T12:00:18.379Z,16.01
2017-04-06T12:01:18.679Z,15.92
2017-04-06T12:02:18.377Z,15.92
2017-04-06T12:03:18.368Z,15.87
2017-04-06T12:04:18.370Z,15.8
2017-04-06T12:05:18.364Z,15.96
2017-04-06T12:06:18.613Z,15.97
2017-04-06T12:07:18.352Z,15.96
2017-04-06T12:08:18.350Z,16
2017-04-06T12:09:18.345Z,16.11
2017-04-06T12:10:18.344Z,16.09
2017-04-06T12:11:18.588Z,16.15
2017-04-06T12:12:18.338Z,16.17
2017-04-06T12:13:18.331Z,16.2
2017-04-06T12:14:18.334Z,16.25
2017-04-06T12:15:18.324Z,16.17
2017-04-06T12:16:18.622Z,16.27
2017-04-06T12:17:18.340Z,16.33
2017-04-06T12:18:18.316Z,16.39
2017-04-06T12:19:18.307Z,16.45
2017-04-06T12:20:18.308Z,16.52
2017-04-06T12:21:18.554Z,16.53
2017-04-06T12:22:18.301Z,16.5
2017-04-06T12:23:18.294Z,16.39
2017-04-06T12:24:18.292Z,16.11
2017-04-06T12:25:18.290Z,15.97
2017-04-06T12:26:18.587Z,15.92
2017-04-06T12:27:18.280Z,16.02
2017-04-06T12:28:18.277Z,16.12
2017-04-06T12:29:18.273Z,16.05
2017-04-06T12:30:18.272Z,16.14
2017-04-06T12:31:18.616Z,16.15
2017-04-06T12:32:18.480Z,16.3
2017-04-06T12:33:18.264Z,16.3
2017-04-06T12:34:18.261Z,16.23
2017-04-06T12:35:18.255Z,16.09
2017-04-06T12:36:18.502Z,16.04
2017-04-06T12:37:18.246Z,16.04
2017-04-06T12:38:18.245Z,16.12
2017-04-06T12:39:18.241Z,16.05
2017-04-06T12:40:18.237Z,16.11
2017-04-06T12:41:18.490Z,16.14
2017-04-06T12:42:18.228Z,16.24
2017-04-06T12:43:18.226Z,16.39
2017-04-06T12:44:18.225Z,16.57
2017-04-06T12:45:18.221Z,16.58
2017-04-06T12:46:18.573Z,16.66
2017-04-06T12:47:18.216Z,16.71
2017-04-06T12:48:18.209Z,16.79
2017-04-06T12:49:18.204Z,16.83
2017-04-06T12:50:18.204Z,16.89
2017-04-06T12:51:18.449Z,16.96
2017-04-06T12:52:17.596Z,17.06
2017-04-06T12:53:18.192Z,17.23
2017-04-06T12:54:18.189Z,17.18
2017-04-06T12:55:18.189Z,17.19
2017-04-06T12:56:18.487Z,17.16
2017-04-06T12:57:18.183Z,17.19
2017-04-06T12:58:18.179Z,17.18
2017-04-06T12:59:17.877Z,17.12
2017-04-06T13:00:18.172Z,17.07
2017-04-06T13:01:18.423Z,16.98
2017-04-06T13:02:18.167Z,16.85
2017-04-06T13:03:18.165Z,16.79
2017-04-06T13:04:18.163Z,16.67
2017-04-06T13:05:18.165Z,16.66
2017-04-06T13:06:18.457Z,16.75
2017-04-06T13:07:18.156Z,16.71
2017-04-06T13:08:18.149Z,16.76
2017-04-06T13:09:18.152Z,16.71